Latest Weather Observations for Perth

IDW60801

Issued at 9:05 am WST Thursday 23 October 2014 (issued every 30 minutes, with the page automatically refreshed every 10 minutes)

About weather observations | Map of weather stations | Latest weather observations for WA | Other Formats
Station Details ID: 009225 Name: PERTH METRO Lat: -31.92 Lon: 115.87 Height: 24.9 m
Data from the previous 72 hours. | See also: Recent months at Perth
Date/Time
WST
Temp
°C
App
Temp
°C
Dew
Point
Rel
Hum
%
Delta-T
°C
Wind Press
QNH
hPa
Press
MSL
hPa
Rain
since 9 am
mm
Dir
 
Spd
km/h
Gust
km/h
Spd
kts
Gust
kts
23/09:00am 20.6 19.7 13.6 64 4.0 WSW 11 19 6 10 1015.8 1015.7 2.2
23/08:30am 19.9 18.7 14.0 69 3.4 WSW 13 24 7 13 1015.5 1015.4 2.2
23/08:00am 19.5 18.0 14.3 72 3.0 WSW 15 24 8 13 1015.5 1015.4 2.2
23/07:30am 18.0 18.1 15.6 86 1.4 W 9 15 5 8 1015.1 1015.0 2.2
23/07:00am 16.6 17.1 15.6 94 0.6 WSW 7 28 4 15 1014.9 1014.8 1.8
23/06:30am 14.9 16.3 14.4 97 0.3 CALM 0 0 0 0 1014.4 1014.3 1.2
23/06:00am 14.5 15.8 14.0 97 0.3 NE 0 0 0 0 1014.1 1014.0 1.2
23/05:30am 14.6 15.5 14.0 96 0.3 NE 2 7 1 4 1013.8 1013.7 1.2
23/05:00am 14.6 15.5 14.0 96 0.3 NE 2 6 1 3 1013.5 1013.4 1.2
23/04:30am 15.1 16.5 14.3 95 0.5 CALM 0 4 0 2 1013.3 1013.2 1.2
23/04:00am 15.6 16.4 14.8 95 0.5 WSW 4 9 2 5 1013.6 1013.5 1.2
23/03:30am 15.6 16.8 15.0 96 0.3 N 2 9 1 5 1013.8 1013.7 1.2
23/03:00am 15.4 15.6 14.8 96 0.3 N 7 9 4 5 1013.9 1013.8 1.2
23/02:30am 15.4 15.7 14.6 95 0.5 N 6 9 3 5 1014.0 1013.9 1.2
23/02:00am 15.1 15.3 14.1 94 0.6 N 6 7 3 4 1013.9 1013.8 1.2
23/01:30am 14.8 14.8 13.5 92 0.7 N 6 7 3 4 1014.0 1013.9 1.2
23/01:00am 15.1 16.2 13.5 90 0.9 CALM 0 2 0 1 1013.8 1013.7 1.2
23/12:30am 15.3 15.6 13.3 88 1.1 NNW 4 7 2 4 1014.2 1014.1 1.2
23/12:00am 15.6 15.8 14.1 91 0.8 N 6 9 3 5 1014.7 1014.6 1.2
 
Date/Time
WST
Temp
°C
App
Temp
°C
Dew
Point
Rel
Hum
%
Delta-T
°C
Wind Press
QNH
hPa
Press
MSL
hPa
Rain
since 9 am
mm
Dir
 
Spd
km/h
Gust
km/h
Spd
kts
Gust
kts
22/11:30pm 15.9 16.9 14.4 91 0.9 N 2 6 1 3 1014.9 1014.8 1.2
22/11:00pm 16.1 16.4 14.6 91 0.9 N 6 7 3 4 1014.9 1014.8 1.2
22/10:30pm 16.2 16.9 14.6 90 0.9 N 4 9 2 5 1014.7 1014.6 1.2
22/10:00pm 16.6 17.0 14.8 89 1.0 N 6 7 3 4 1014.5 1014.4 1.0
22/09:30pm 17.0 16.9 15.0 88 1.2 NNW 9 17 5 9 1014.6 1014.5 0.6
22/09:00pm 19.3 17.6 13.7 70 3.2 NW 15 24 8 13 1015.1 1015.0 0.0
22/08:30pm 18.7 18.0 14.4 76 2.5 WNW 11 20 6 11 1014.6 1014.5 0.0
22/08:00pm 18.6 18.2 14.1 75 2.6 NW 9 20 5 11 1014.1 1014.0 0.0
22/07:30pm 18.7 18.1 13.6 72 2.9 WNW 9 20 5 11 1013.8 1013.7 0.0
22/07:00pm 19.1 17.5 13.9 72 3.0 WNW 15 28 8 15 1013.7 1013.6 0.0
22/06:30pm 19.2 18.3 13.8 71 3.1 W 11 22 6 12 1013.4 1013.3 0.0
22/06:00pm 19.8 17.7 13.7 68 3.5 WNW 17 30 9 16 1013.3 1013.2 0.0
22/05:30pm 20.1 17.9 14.9 72 3.1 NW 20 35 11 19 1013.1 1013.0 0.0
22/05:00pm 20.5 18.1 15.5 73 3.0 WNW 22 44 12 24 1012.8 1012.7 0.0
22/04:30pm 22.0 20.2 14.4 62 4.5 WNW 17 46 9 25 1012.5 1012.4 0.0
22/04:00pm 22.2 20.5 14.8 63 4.4 WNW 17 33 9 18 1012.5 1012.4 0.0
22/03:30pm 21.8 20.6 16.1 70 3.4 WNW 17 33 9 18 1012.4 1012.3 0.0
22/03:00pm 22.3 21.1 16.1 68 3.7 NW 17 35 9 19 1012.3 1012.2 0.0
22/02:30pm 23.3 21.2 16.1 64 4.4 NW 22 43 12 23 1011.7 1011.7 0.0
22/02:00pm 24.3 22.3 15.5 58 5.3 WNW 20 41 11 22 1011.3 1011.3 0.0
22/01:30pm 24.7 21.4 13.9 51 6.4 WNW 24 46 13 25 1011.1 1011.1 0.0
22/01:00pm 26.1 23.1 12.5 42 7.9 WNW 20 33 11 18 1011.1 1011.1 0.0
22/12:30pm 30.2 25.1 10.7 30 11.2 NW 28 43 15 23 1010.7 1010.7 0.0
22/12:00pm 31.0 27.8 11.9 31 11.2 NE 20 33 11 18 1011.1 1011.1 0.0
22/11:30am 29.2 25.7 12.2 35 9.9 NNE 22 35 12 19 1011.5 1011.5 0.0
22/11:00am 28.4 24.6 12.3 37 9.4 NE 24 37 13 20 1012.3 1012.2 0.0
22/10:30am 27.2 24.3 12.8 41 8.4 NE 20 32 11 17 1012.8 1012.7 0.0
22/10:00am 26.4 23.1 11.7 40 8.4 NE 20 35 11 19 1013.9 1013.8 0.0
22/09:30am 26.0 23.3 12.8 44 7.7 NE 19 28 10 15 1014.2 1014.1 0.0
22/09:00am 24.7 21.7 12.6 47 7.0 NNE 20 37 11 20 1014.4 1014.3 0.0
22/08:30am 24.0 21.7 12.9 50 6.4 NE 17 28 9 15 1014.1 1014.0 0.0
22/08:00am 22.0 19.4 13.1 57 5.1 ENE 19 32 10 17 1013.6 1013.5 0.0
22/07:30am 19.9 17.2 12.9 64 4.0 ENE 19 35 10 19 1013.8 1013.7 0.0
22/07:00am 19.4 17.1 12.9 66 3.7 ENE 17 28 9 15 1014.0 1013.9 0.0
22/06:30am 18.4 16.7 12.4 68 3.3 ENE 13 22 7 12 1013.9 1013.8 0.0
22/06:00am 17.8 16.5 12.5 71 2.9 ENE 11 24 6 13 1013.9 1013.8 0.0
22/05:30am 17.4 15.7 12.5 73 2.7 ENE 13 28 7 15 1013.8 1013.7 0.0
22/05:00am 17.0 15.6 12.3 74 2.6 ENE 11 20 6 11 1013.9 1013.8 0.0
22/04:30am 17.3 15.6 12.4 73 2.7 ENE 13 30 7 16 1014.0 1013.9 0.0
22/04:00am 17.3 15.5 12.2 72 2.8 E 13 26 7 14 1014.2 1014.1 0.0
22/03:30am 17.4 15.6 12.1 71 2.9 E 13 28 7 15 1014.5 1014.4 0.0
22/03:00am 17.5 15.5 11.5 68 3.3 E 13 20 7 11 1014.7 1014.6 0.0
22/02:30am 18.0 16.6 10.9 63 3.8 E 9 17 5 9 1014.9 1014.8 0.0
22/02:00am 18.6 17.1 10.4 59 4.4 ENE 9 19 5 10 1015.3 1015.2 0.0
22/01:30am 18.4 17.2 10.3 59 4.3 E 7 17 4 9 1015.5 1015.4 0.0
22/01:00am 18.7 17.0 9.8 56 4.7 E 9 17 5 9 1015.9 1015.8 0.0
22/12:30am 19.5 16.6 9.7 53 5.2 E 15 28 8 15 1016.3 1016.2 0.0
22/12:00am 19.1 17.0 9.6 54 5.0 E 11 19 6 10 1016.6 1016.5 0.0
 
Date/Time
WST
Temp
°C
App
Temp
°C
Dew
Point
Rel
Hum
%
Delta-T
°C
Wind Press
QNH
hPa
Press
MSL
hPa
Rain
since 9 am
mm
Dir
 
Spd
km/h
Gust
km/h
Spd
kts
Gust
kts
21/11:30pm 18.7 16.7 10.0 57 4.6 E 11 17 6 9 1016.8 1016.7 0.0
21/11:00pm 15.2 15.9 12.3 83 1.6 CALM 0 0 0 0 1017.2 1017.1 0.0
21/10:30pm 16.3 17.1 12.5 78 2.1 CALM 0 0 0 0 1017.3 1017.2 0.0
21/10:00pm 17.2 16.6 12.3 73 2.7 SSE 7 11 4 6 1018.0 1017.9 0.0
21/09:30pm 18.0 17.1 12.5 70 3.1 SSE 9 15 5 8 1018.6 1018.5 0.0
21/09:00pm 18.3 17.3 12.3 68 3.3 SSE 9 17 5 9 1018.9 1018.8 0.0
21/08:30pm 18.7 17.0 12.5 67 3.5 SSE 13 20 7 11 1019.2 1019.1 0.0
21/08:00pm 19.1 17.4 12.6 66 3.6 S 13 22 7 12 1019.3 1019.2 0.0
21/07:30pm 19.5 18.3 12.7 65 3.8 S 11 20 6 11 1019.5 1019.4 0.0
21/07:00pm 19.5 19.2 13.2 67 3.6 S 7 13 4 7 1019.2 1019.1 0.0
21/06:30pm 19.9 19.5 12.9 64 4.0 SSW 7 11 4 6 1019.2 1019.1 0.0
21/06:00pm 20.6 19.8 12.8 61 4.4 SSW 9 15 5 8 1019.0 1018.9 0.0
21/05:30pm 21.0 20.0 12.4 58 4.9 SSW 9 19 5 10 1018.9 1018.8 0.0
21/05:00pm 21.5 19.6 11.8 54 5.4 SSW 13 24 7 13 1019.0 1018.9 0.0
21/04:30pm 22.2 20.3 11.9 52 5.8 SSW 13 24 7 13 1019.0 1018.9 0.0
21/04:00pm 22.4 20.3 12.4 53 5.7 SW 15 26 8 14 1019.0 1018.9 0.0
21/03:30pm 23.8 21.8 12.8 50 6.3 SW 15 24 8 13 1019.0 1018.9 0.0
21/03:00pm 23.7 21.6 12.4 49 6.4 SW 15 26 8 14 1019.3 1019.2 0.0
21/02:30pm 23.7 21.5 12.0 48 6.6 SW 15 24 8 13 1019.5 1019.4 0.0
21/02:00pm 23.4 20.8 12.1 49 6.4 S 17 22 9 12 1019.9 1019.8 0.0
21/01:30pm 24.2 22.8 12.2 47 6.8 SSW 11 19 6 10 1020.2 1020.1 0.0
21/01:00pm 23.5 22.5 10.9 45 7.0 S 7 13 4 7 1020.7 1020.6 0.0
21/12:30pm 22.8 21.0 9.6 43 7.1 ENE 9 15 5 8 1020.9 1020.8 0.0
21/12:00pm 23.1 22.3 11.8 49 6.4 SSW 7 13 4 7 1020.9 1020.8 0.0
21/11:30am 21.1 20.3 10.9 52 5.6 S 6 13 3 7 1021.2 1021.1 0.0
21/11:00am 20.9 19.9 11.0 53 5.4 ENE 7 15 4 8 1021.6 1021.5 0.0
21/10:30am 20.1 18.8 9.9 52 5.5 E 7 13 4 7 1022.1 1022.0 0.0
21/10:00am 19.7 18.3 10.9 57 4.8 ESE 9 20 5 11 1022.4 1022.3 0.0
21/09:30am 18.9 17.7 11.5 62 4.1 SSE 9 15 5 8 1022.6 1022.5 0.0
21/09:00am 18.5 17.4 11.8 65 3.7 ENE 9 15 5 8 1022.7 1022.6 0.0
21/08:30am 17.3 16.0 11.3 68 3.3 E 9 17 5 9 1022.6 1022.5 0.0
21/08:00am 16.3 15.1 11.7 74 2.5 E 9 19 5 10 1022.5 1022.4 0.0
21/07:30am 14.7 14.5 11.7 82 1.6 NE 4 7 2 4 1022.3 1022.2 0.0
21/07:00am 12.4 11.6 11.0 91 0.7 SSE 6 7 3 4 1022.1 1022.0 0.0
21/06:30am 10.1 10.1 9.8 98 0.2 CALM 0 0 0 0 1022.0 1021.9 0.0
21/06:00am 8.6 8.2 8.2 97 0.2 CALM 0 0 0 0 1021.7 1021.6 0.0
21/05:30am 8.4 7.9 8.0 97 0.2 CALM 0 0 0 0 1021.5 1021.4 0.0
21/05:00am 8.8 8.4 8.4 97 0.2 CALM 0 0 0 0 1021.4 1021.3 0.0
21/04:30am 8.8 8.4 8.2 96 0.3 CALM 0 0 0 0 1020.9 1020.8 0.0
21/04:00am 9.2 8.9 8.6 96 0.3 CALM 0 0 0 0 1020.6 1020.5 0.0
21/03:30am 9.3 9.0 8.7 96 0.3 CALM 0 0 0 0 1020.4 1020.3 0.0
21/03:00am 9.5 9.3 8.9 96 0.3 CALM 0 0 0 0 1020.3 1020.2 0.0
21/02:30am 9.8 9.6 9.2 96 0.3 CALM 0 0 0 0 1020.3 1020.2 0.0
21/02:00am 10.0 9.8 9.2 95 0.4 CALM 0 0 0 0 1020.3 1020.2 0.0
21/01:30am 10.0 9.8 9.1 94 0.4 CALM 0 0 0 0 1020.3 1020.2 0.0
21/01:00am 10.6 10.6 9.7 94 0.5 CALM 0 0 0 0 1020.2 1020.1 0.0
21/12:30am 11.0 11.0 9.9 93 0.6 CALM 0 0 0 0 1020.3 1020.2 0.0
21/12:00am 11.2 11.2 9.8 91 0.7 CALM 0 0 0 0 1020.6 1020.5 0.0
 
Date/Time
WST
Temp
°C
App
Temp
°C
Dew
Point
Rel
Hum
%
Delta-T
°C
Wind Press
QNH
hPa
Press
MSL
hPa
Rain
since 9 am
mm
Dir
 
Spd
km/h
Gust
km/h
Spd
kts
Gust
kts
20/11:30pm 11.8 11.9 10.0 89 0.9 CALM 0 0 0 0 1020.6 1020.5 0.0
20/11:00pm 12.7 12.8 10.2 85 1.3 CALM 0 0 0 0 1020.7 1020.6 0.0
20/10:30pm 13.8 13.6 10.4 80 1.8 S 2 7 1 4 1020.7 1020.6 0.0
20/10:00pm 15.0 14.0 10.2 73 2.5 S 6 9 3 5 1020.8 1020.7 0.0
20/09:30pm 15.5 14.9 10.3 71 2.7 S 4 9 2 5 1020.9 1020.8 0.0
20/09:00pm 16.0 14.5 10.5 70 2.9 S 9 13 5 7 1020.9 1020.8 0.0
20/08:30pm 16.5 14.7 10.8 69 3.0 S 11 20 6 11 1020.8 1020.7 0.0
20/08:00pm 16.4 15.0 10.9 70 2.9 SSW 9 15 5 8 1020.7 1020.6 0.0
20/07:30pm 16.7 15.0 11.2 70 3.0 SW 11 19 6 10 1020.5 1020.4 0.0
20/07:00pm 16.9 15.7 11.6 71 2.9 SSW 9 17 5 9 1020.4 1020.3 0.0
20/06:30pm 17.3 15.5 12.0 71 2.9 SW 13 20 7 11 1020.0 1019.9 0.0
20/06:00pm 17.6 15.4 12.1 70 3.0 SSW 15 28 8 15 1019.5 1019.4 0.0
20/05:30pm 18.3 16.1 12.1 67 3.4 SSW 15 24 8 13 1019.4 1019.3 0.0
20/05:00pm 19.2 16.5 11.7 62 4.1 SW 17 26 9 14 1019.3 1019.2 0.0
20/04:30pm 19.6 16.9 11.6 60 4.4 SW 17 28 9 15 1019.3 1019.2 0.0
20/04:00pm 20.0 17.2 11.5 58 4.7 WSW 17 28 9 15 1018.8 1018.7 0.0
20/03:30pm 19.9 17.4 12.4 62 4.2 WSW 17 26 9 14 1018.7 1018.6 0.0
20/03:00pm 19.0 15.9 11.6 62 4.1 WSW 19 30 10 16 1018.7 1018.6 0.0
20/02:30pm 20.4 17.6 11.3 56 5.0 WSW 17 28 9 15 1018.5 1018.4 0.0
20/02:00pm 19.8 17.1 11.6 59 4.5 WSW 17 30 9 16 1018.5 1018.4 0.0
20/01:30pm 20.2 17.6 10.6 54 5.2 SW 15 30 8 16 1018.3 1018.2 0.0
20/01:00pm 19.7 16.9 11.2 58 4.6 WSW 17 32 9 17 1018.5 1018.4 0.0
20/12:30pm 19.7 17.6 11.2 58 4.7 SW 13 26 7 14 1018.3 1018.2 0.0
20/12:00pm 20.1 17.4 11.6 58 4.7 WSW 17 32 9 17 1018.0 1017.9 0.0
20/11:30am 19.9 17.6 11.9 60 4.4 SW 15 24 8 13 1018.1 1018.0 0.0
20/11:00am 19.3 17.2 11.3 60 4.4 WSW 13 24 7 13 1018.1 1018.0 0.0
20/10:30am 18.5 16.1 11.3 63 3.9 SW 15 24 8 13 1018.2 1018.1 0.0
20/10:00am 18.5 16.6 11.8 65 3.7 SW 13 24 7 13 1018.2 1018.1 0.0
20/09:30am 17.5 15.0 11.1 66 3.5 WSW 15 26 8 14 1018.2 1018.1 0.0

Other Formats:

Comma delimited format used in spreadsheet applications
http://www.bom.gov.au/fwo/IDW60801/IDW60801.94608.axf

JavaScript Object Notation format (JSON) in row-major order
http://www.bom.gov.au/fwo/IDW60801/IDW60801.94608.json